Terminal Aerodrome Forecast
Issued by NWS

Home | Current Version | Previous Version | Text Only | Print | Product List | Glossary On
Versions: 1 2 3 4 5 6 7 8 9 10 11 12 13 14 15 16 17 18
000
FTUS46 KSEW 220520
TAFOLM
TAF
KOLM 220520Z 2206/2306 25006KT P6SM SCT030 BKN045
     FM220800 20005KT 4SM BR SCT008 OVC015
     FM221500 20005KT P6SM VCSH SCT012 BKN020 OVC030
      TEMPO 2215/2219 2SM -SHRA BR SCT006 OVC012
     FM222100 21007KT P6SM VCSH SCT025 BKN035
     FM230000 VRB03KT P6SM SCT035 SCT250=

USA.gov is the U.S. government's official web portal to all federal, state and local government web resources and services.